createdAt,value
2019-02-04T00:01:55.389Z,8.00
2019-02-04T00:04:25.764Z,7.87
2019-02-04T00:06:55.929Z,9.08
2019-02-04T00:09:26.114Z,7.00
2019-02-04T00:11:56.775Z,7.58
2019-02-04T00:14:26.960Z,8.93
2019-02-04T00:16:57.295Z,9.15
2019-02-04T00:19:28.507Z,7.70
2019-02-04T00:21:58.794Z,10.15
2019-02-04T00:24:29.582Z,8.20
2019-02-04T00:26:59.855Z,10.55
2019-02-04T00:29:30.137Z,7.78
2019-02-04T00:32:00.368Z,7.67
2019-02-04T00:34:30.652Z,7.78
2019-02-04T00:37:00.822Z,7.28
2019-02-04T00:39:30.525Z,8.37
2019-02-04T00:42:00.789Z,9.75
2019-02-04T00:44:30.989Z,8.78
2019-02-04T00:47:02.193Z,8.88
2019-02-04T00:49:32.478Z,10.78
2019-02-04T00:52:02.842Z,9.98
2019-02-04T00:54:33.045Z,8.03
2019-02-04T00:57:03.282Z,7.45
2019-02-04T00:59:33.671Z,8.18
2019-02-04T01:02:04.419Z,10.55
2019-02-04T01:04:35.010Z,10.03
2019-02-04T01:07:05.779Z,8.28
2019-02-04T01:09:35.497Z,9.27
2019-02-04T01:12:06.641Z,11.22
2019-02-04T01:14:36.829Z,10.95
2019-02-04T01:17:07.090Z,10.58
2019-02-04T01:19:37.361Z,8.65
2019-02-04T01:22:07.994Z,8.20
2019-02-04T01:24:38.270Z,10.00
2019-02-04T01:27:08.533Z,8.88
2019-02-04T01:29:39.422Z,11.70
2019-02-04T01:32:09.156Z,8.30
2019-02-04T01:34:39.524Z,8.83
2019-02-04T01:37:18.997Z,8.33
2019-02-04T01:39:48.704Z,10.10
2019-02-04T01:42:19.488Z,8.40
2019-02-04T01:44:49.664Z,12.82
2019-02-04T01:47:19.875Z,10.80
2019-02-04T01:49:50.167Z,10.18
2019-02-04T01:52:20.546Z,10.03
2019-02-04T01:54:50.805Z,8.08
2019-02-04T01:57:21.116Z,9.40
2019-02-04T01:59:51.438Z,10.03
2019-02-04T02:02:21.574Z,6.55
2019-02-04T02:04:51.754Z,8.30
2019-02-04T02:07:22.097Z,8.83
2019-02-04T02:09:52.581Z,8.78
2019-02-04T02:12:22.898Z,7.70
2019-02-04T02:14:53.057Z,7.62
2019-02-04T02:17:26.582Z,7.83
2019-02-04T02:19:55.523Z,9.28
2019-02-04T02:22:26.037Z,11.68
2019-02-04T02:24:56.224Z,11.95
2019-02-04T02:27:26.506Z,7.92
2019-02-04T02:29:56.667Z,8.85
2019-02-04T02:32:26.961Z,9.75
2019-02-04T02:34:57.533Z,10.70
2019-02-04T02:37:27.813Z,9.13
2019-02-04T02:39:58.280Z,10.30
2019-02-04T02:42:28.461Z,8.88
2019-02-04T02:44:58.726Z,8.85
2019-02-04T02:47:38.071Z,9.68
2019-02-04T02:50:00.684Z,8.75
2019-02-04T02:52:30.889Z,8.55
2019-02-04T02:55:01.042Z,6.90
2019-02-04T02:57:31.325Z,8.03
2019-02-04T03:00:01.573Z,8.38
2019-02-04T03:02:31.962Z,7.95
2019-02-04T03:05:02.221Z,7.37
2019-02-04T03:07:32.429Z,7.55
2019-02-04T03:10:03.117Z,10.30
2019-02-04T03:12:33.301Z,7.62
2019-02-04T03:15:04.906Z,8.98
2019-02-04T03:17:35.193Z,8.65
2019-02-04T03:20:08.104Z,10.50
2019-02-04T03:22:38.376Z,11.22
2019-02-04T03:25:11.455Z,9.58
2019-02-04T03:27:42.212Z,11.22
2019-02-04T03:30:18.487Z,8.15
2019-02-04T03:32:48.682Z,11.93
2019-02-04T03:35:18.910Z,9.25
2019-02-04T03:37:52.222Z,10.58
2019-02-04T03:40:27.161Z,12.78
2019-02-04T03:42:57.430Z,10.82
2019-02-04T03:45:27.831Z,8.53
2019-02-04T03:48:07.188Z,8.58
2019-02-04T03:50:30.081Z,10.82
2019-02-04T03:53:00.300Z,13.25
2019-02-04T03:55:30.529Z,10.95
2019-02-04T03:58:00.736Z,10.95
2019-02-04T04:00:33.641Z,10.90
2019-02-04T04:03:04.581Z,10.32
2019-02-04T04:05:34.760Z,12.18
2019-02-04T04:08:05.736Z,11.70
2019-02-04T04:10:35.908Z,8.00
2019-02-04T04:13:06.198Z,8.03
2019-02-04T04:15:36.437Z,8.23
2019-02-04T04:18:15.623Z,10.63
2019-02-04T04:20:38.661Z,9.05
2019-02-04T04:23:08.279Z,8.83
2019-02-04T04:25:37.950Z,10.50
2019-02-04T04:28:07.776Z,8.33
2019-02-04T04:30:38.345Z,8.43
2019-02-04T04:33:08.178Z,11.07
2019-02-04T04:35:38.634Z,13.32
2019-02-04T04:38:08.849Z,11.97
2019-02-04T04:40:38.562Z,17.10
2019-02-04T04:43:08.272Z,13.90
2019-02-04T04:45:37.873Z,11.30
2019-02-04T04:48:07.496Z,13.60
2019-02-04T04:50:37.397Z,12.73
2019-02-04T04:53:07.602Z,10.72
2019-02-04T04:55:38.588Z,12.58
2019-02-04T04:58:08.522Z,10.58
2019-02-04T05:00:38.184Z,12.90
2019-02-04T05:03:08.382Z,10.58
2019-02-04T05:05:38.082Z,12.10
2019-02-04T05:08:07.700Z,10.50
2019-02-04T05:10:37.877Z,10.80
2019-02-04T05:13:07.601Z,10.93
2019-02-04T05:15:37.769Z,9.53
2019-02-04T05:18:07.394Z,10.83
2019-02-04T05:20:37.166Z,12.77
2019-02-04T05:23:07.377Z,11.80
2019-02-04T05:25:37.373Z,13.00
2019-02-04T05:28:07.580Z,11.68
2019-02-04T05:30:37.257Z,10.17
2019-02-04T05:33:06.932Z,11.37
2019-02-04T05:35:36.541Z,12.70
2019-02-04T05:38:06.311Z,13.70
2019-02-04T05:40:36.173Z,12.13
2019-02-04T05:43:05.810Z,13.22
2019-02-04T05:45:36.114Z,11.77
2019-02-04T05:48:05.759Z,12.33
2019-02-04T05:50:35.632Z,14.33
2019-02-04T05:53:05.912Z,13.90
2019-02-04T05:55:35.616Z,14.63
2019-02-04T05:58:06.094Z,16.07
2019-02-04T06:00:43.165Z,20.03
2019-02-04T06:03:12.941Z,16.30
2019-02-04T06:05:42.762Z,14.30
2019-02-04T06:08:12.427Z,16.73
2019-02-04T06:10:42.042Z,13.97
2019-02-04T06:13:11.646Z,14.30
2019-02-04T06:15:41.275Z,12.60
2019-02-04T06:18:10.968Z,14.97
2019-02-04T06:20:40.589Z,16.97
2019-02-04T06:23:10.190Z,13.40
2019-02-04T06:25:39.817Z,12.77
2019-02-04T06:28:09.525Z,13.90
2019-02-04T06:30:39.148Z,12.47
2019-02-04T06:33:08.751Z,13.00
2019-02-04T06:35:38.376Z,14.23
2019-02-04T06:38:08.287Z,11.60
2019-02-04T06:40:37.909Z,12.60
2019-02-04T06:43:07.594Z,16.47
2019-02-04T06:45:37.434Z,17.00
2019-02-04T06:48:07.518Z,20.20
2019-02-04T06:50:37.207Z,15.97
2019-02-04T06:53:06.915Z,18.50
2019-02-04T06:55:36.638Z,16.97
2019-02-04T06:58:07.450Z,18.40
2019-02-04T07:00:37.154Z,14.03
2019-02-04T07:03:06.941Z,17.93
2019-02-04T07:05:43.558Z,15.40
2019-02-04T07:08:08.243Z,15.60
2019-02-04T07:10:37.967Z,15.03
2019-02-04T07:13:07.662Z,15.70
2019-02-04T07:15:37.692Z,15.40
2019-02-04T07:18:07.302Z,17.00
2019-02-04T07:20:38.035Z,19.73
2019-02-04T07:23:07.702Z,17.60
2019-02-04T07:25:37.894Z,19.03
2019-02-04T07:28:07.605Z,15.03
2019-02-04T07:30:37.400Z,17.93
2019-02-04T07:33:07.009Z,16.30
2019-02-04T07:35:36.704Z,20.93
2019-02-04T07:38:06.828Z,18.97
2019-02-04T07:40:37.870Z,18.00
2019-02-04T07:43:07.541Z,14.87
2019-02-04T07:45:37.832Z,13.70
2019-02-04T07:48:07.519Z,15.53
2019-02-04T07:50:37.225Z,16.60
2019-02-04T07:53:06.902Z,16.67
2019-02-04T07:55:36.563Z,17.57
2019-02-04T07:58:06.149Z,14.53
2019-02-04T08:00:35.854Z,15.17
2019-02-04T08:03:05.667Z,14.33
2019-02-04T08:05:35.349Z,16.13
2019-02-04T08:08:05.360Z,14.33
2019-02-04T08:10:34.969Z,17.87
2019-02-04T08:13:05.333Z,20.00
2019-02-04T08:15:37.158Z,17.27
2019-02-04T08:18:07.420Z,15.97
2019-02-04T08:20:37.098Z,13.60
2019-02-04T08:23:06.731Z,13.53
2019-02-04T08:25:36.406Z,14.63
2019-02-04T08:28:06.434Z,11.97
2019-02-04T08:30:38.594Z,14.00
2019-02-04T08:33:08.385Z,13.17
2019-02-04T08:35:38.054Z,11.37
2019-02-04T08:38:07.814Z,14.43
2019-02-04T08:40:37.713Z,14.10
2019-02-04T08:43:07.520Z,13.30
2019-02-04T08:45:37.265Z,13.10
2019-02-04T08:48:07.135Z,16.87
2019-02-04T08:50:38.724Z,15.20
2019-02-04T08:53:09.385Z,15.40
2019-02-04T08:55:39.826Z,20.13
2019-02-04T08:58:09.697Z,12.57
2019-02-04T09:00:39.403Z,12.73
2019-02-04T09:03:09.322Z,9.90
2019-02-04T09:05:38.984Z,9.30
2019-02-04T09:08:08.601Z,10.33
2019-02-04T09:10:38.564Z,11.20
2019-02-04T09:13:08.193Z,12.43
2019-02-04T09:15:37.873Z,11.73
2019-02-04T09:18:07.741Z,12.97
2019-02-04T09:20:37.340Z,11.67
2019-02-04T09:23:06.962Z,5.93
2019-02-04T09:25:36.899Z,6.63
2019-02-04T09:28:06.510Z,5.43
2019-02-04T09:30:36.382Z,6.27
2019-02-04T09:33:06.364Z,6.33
2019-02-04T09:35:36.204Z,7.77
2019-02-04T09:38:06.118Z,9.93
2019-02-04T09:40:38.820Z,10.33
2019-02-04T09:43:08.986Z,9.03
2019-02-04T09:45:39.032Z,10.00
2019-02-04T09:48:14.737Z,11.07
2019-02-04T09:50:47.261Z,8.80
2019-02-04T09:53:17.052Z,8.70
2019-02-04T09:55:47.961Z,5.30
2019-02-04T09:58:17.587Z,5.87
2019-02-04T10:00:47.353Z,6.17
2019-02-04T10:03:16.949Z,6.73
2019-02-04T10:05:47.239Z,5.57
2019-02-04T10:08:16.825Z,5.47
2019-02-04T10:10:46.573Z,6.90
2019-02-04T10:13:16.236Z,7.43
2019-02-04T10:15:46.258Z,5.17
2019-02-04T10:18:16.300Z,7.67
2019-02-04T10:20:46.543Z,7.75
2019-02-04T10:23:16.194Z,6.93
2019-02-04T10:25:45.830Z,6.80
2019-02-04T10:28:16.302Z,5.50
2019-02-04T10:30:46.612Z,5.08
2019-02-04T10:33:16.760Z,8.77
2019-02-04T10:35:46.392Z,5.43
2019-02-04T10:38:16.851Z,6.35
2019-02-04T10:40:48.116Z,6.05
2019-02-04T10:43:18.353Z,5.72
2019-02-04T10:45:47.980Z,6.07
2019-02-04T10:48:17.670Z,5.37
2019-02-04T10:50:47.400Z,8.33
2019-02-04T10:53:17.673Z,7.50
2019-02-04T10:55:47.945Z,5.90
2019-02-04T10:58:18.345Z,6.00
2019-02-04T11:00:48.457Z,5.87
2019-02-04T11:03:19.949Z,5.93
2019-02-04T11:05:49.365Z,5.67
2019-02-04T11:08:18.973Z,8.47
2019-02-04T11:10:48.598Z,6.20
2019-02-04T11:13:18.338Z,5.37
2019-02-04T11:15:49.282Z,4.95
2019-02-04T11:18:19.268Z,5.13
2019-02-04T11:20:57.660Z,7.90
2019-02-04T11:23:20.788Z,5.50
2019-02-04T11:25:51.333Z,4.45
2019-02-04T11:28:21.710Z,4.70
2019-02-04T11:30:57.333Z,5.65
2019-02-04T11:33:27.031Z,6.10
2019-02-04T11:35:57.278Z,4.05
2019-02-04T11:38:27.075Z,5.23
2019-02-04T11:40:57.058Z,4.80
2019-02-04T11:43:26.868Z,6.60
2019-02-04T11:45:57.328Z,4.58
2019-02-04T11:48:27.703Z,6.95
2019-02-04T11:51:08.907Z,4.90
2019-02-04T11:53:33.095Z,5.45
2019-02-04T11:56:01.596Z,5.10
2019-02-04T11:58:31.830Z,5.12
2019-02-04T12:01:01.683Z,5.40
2019-02-04T12:03:31.927Z,4.83
2019-02-04T12:06:02.273Z,6.03
2019-02-04T12:08:35.477Z,7.60
2019-02-04T12:11:06.769Z,4.87
2019-02-04T12:13:37.052Z,4.92
2019-02-04T12:16:07.242Z,5.00
2019-02-04T12:18:38.469Z,7.00
2019-02-04T12:21:08.648Z,5.35
2019-02-04T12:23:38.875Z,5.58
2019-02-04T12:26:09.160Z,6.15
2019-02-04T12:28:39.393Z,4.47
2019-02-04T12:31:10.977Z,6.37
2019-02-04T12:33:41.547Z,6.62
2019-02-04T12:36:11.789Z,5.37
2019-02-04T12:38:42.044Z,5.30
2019-02-04T12:41:13.001Z,7.05
2019-02-04T12:43:43.269Z,4.85
2019-02-04T12:46:13.580Z,5.87
2019-02-04T12:48:43.744Z,4.80
2019-02-04T12:51:14.109Z,5.05
2019-02-04T12:53:43.726Z,4.97
2019-02-04T12:56:15.210Z,4.87
2019-02-04T12:58:55.319Z,4.97
2019-02-04T13:01:17.344Z,5.17
2019-02-04T13:03:47.608Z,4.47
2019-02-04T13:06:17.789Z,5.55
2019-02-04T13:08:48.260Z,4.42
2019-02-04T13:11:18.606Z,6.65
2019-02-04T13:13:49.272Z,4.75
2019-02-04T13:16:19.525Z,4.80
2019-02-04T13:18:49.793Z,4.92
2019-02-04T13:21:20.357Z,4.33
2019-02-04T13:23:50.599Z,4.33
2019-02-04T13:26:20.769Z,5.95
2019-02-04T13:28:51.015Z,4.17
2019-02-04T13:31:21.605Z,7.55
2019-02-04T13:33:51.790Z,4.35
2019-02-04T13:36:22.084Z,3.98
2019-02-04T13:38:52.257Z,4.53
2019-02-04T13:41:22.915Z,4.17
2019-02-04T13:43:53.078Z,4.50
2019-02-04T13:46:23.339Z,4.83
2019-02-04T13:48:53.505Z,4.60
2019-02-04T13:51:23.718Z,4.53
2019-02-04T13:53:57.172Z,5.12
2019-02-04T13:56:26.749Z,4.70
2019-02-04T13:58:56.948Z,5.95
2019-02-04T14:01:27.140Z,4.80
2019-02-04T14:03:57.309Z,5.10
2019-02-04T14:06:27.497Z,4.67
2019-02-04T14:08:57.689Z,5.17
2019-02-04T14:11:27.958Z,4.90
2019-02-04T14:13:58.305Z,4.67
2019-02-04T14:16:28.497Z,4.42
2019-02-04T14:18:59.552Z,5.65
2019-02-04T14:21:29.847Z,6.50
2019-02-04T14:24:00.084Z,5.17
2019-02-04T14:26:30.285Z,4.35
2019-02-04T14:29:00.449Z,3.85
2019-02-04T14:31:30.713Z,4.45
2019-02-04T14:34:01.281Z,4.00
2019-02-04T14:36:31.642Z,4.17
2019-02-04T14:39:01.881Z,3.55
2019-02-04T14:41:32.181Z,4.30
2019-02-04T14:44:02.722Z,4.05
2019-02-04T14:46:39.386Z,3.45
2019-02-04T14:49:36.973Z,3.98
2019-02-04T14:52:21.948Z,7.22
2019-02-04T14:55:11.333Z,4.87
2019-02-04T14:57:47.318Z,3.87
2019-02-04T15:00:48.234Z,3.92
2019-02-04T15:03:51.744Z,4.20
2019-02-04T15:06:30.850Z,3.90
2019-02-04T15:09:31.531Z,4.65
2019-02-04T15:12:26.585Z,4.35
2019-02-04T15:15:14.760Z,4.53
2019-02-04T15:17:58.909Z,5.72
2019-02-04T15:20:48.996Z,5.35
2019-02-04T15:23:24.999Z,5.37
2019-02-04T15:26:04.034Z,4.35
2019-02-04T15:28:37.307Z,4.30
2019-02-04T15:31:13.397Z,4.47
2019-02-04T15:33:52.545Z,5.92
2019-02-04T15:36:25.888Z,4.58
2019-02-04T15:39:10.974Z,5.08
2019-02-04T15:41:59.298Z,5.80
2019-02-04T15:44:36.256Z,5.25
2019-02-04T15:47:09.502Z,5.33
2019-02-04T15:49:59.289Z,4.70
2019-02-04T15:52:29.461Z,5.22
2019-02-04T15:54:59.724Z,4.87
2019-02-04T15:57:30.017Z,4.33
2019-02-04T16:00:00.185Z,6.55
2019-02-04T16:02:30.368Z,4.22
2019-02-04T16:05:00.032Z,4.50
2019-02-04T16:07:30.284Z,4.80
2019-02-04T16:10:00.755Z,4.87
2019-02-04T16:12:30.929Z,5.37
2019-02-04T16:15:01.477Z,5.47
2019-02-04T16:17:31.670Z,6.42
2019-02-04T16:20:01.838Z,8.55
2019-02-04T16:22:32.029Z,7.55
2019-02-04T16:25:02.189Z,8.43
2019-02-04T16:27:31.816Z,13.63
2019-02-04T16:30:02.023Z,24.95
2019-02-04T16:32:32.200Z,12.28
2019-02-04T16:35:02.425Z,17.30
2019-02-04T16:37:33.019Z,14.58
2019-02-04T16:40:03.359Z,10.38
2019-02-04T16:42:33.521Z,7.42
2019-02-04T16:45:04.384Z,25.62
2019-02-04T16:47:34.573Z,28.00
2019-02-04T16:50:07.286Z,24.27
2019-02-04T16:52:36.880Z,6.40
2019-02-04T16:55:08.704Z,7.00
2019-02-04T16:57:38.964Z,6.40
2019-02-04T17:00:14.981Z,9.33
2019-02-04T17:02:45.511Z,6.53
2019-02-04T17:05:16.432Z,6.85
2019-02-04T17:07:46.678Z,7.78
2019-02-04T17:10:21.995Z,7.55
2019-02-04T17:12:52.512Z,12.05
2019-02-04T17:15:25.570Z,7.92
2019-02-04T17:17:54.575Z,10.63
2019-02-04T17:20:30.312Z,10.60
2019-02-04T17:23:00.509Z,8.08
2019-02-04T17:25:30.852Z,10.03
2019-02-04T17:28:01.092Z,12.10
2019-02-04T17:30:31.520Z,10.03
2019-02-04T17:33:01.687Z,9.33
2019-02-04T17:35:31.309Z,9.17
2019-02-04T17:38:03.982Z,9.57
2019-02-04T17:40:32.244Z,10.03
2019-02-04T17:43:02.277Z,13.70
2019-02-04T17:45:32.402Z,14.80
2019-02-04T17:48:02.196Z,11.27
2019-02-04T17:50:31.966Z,36.97
2019-02-04T17:53:01.607Z,35.83
2019-02-04T17:55:31.183Z,34.40
2019-02-04T17:58:01.391Z,50.45
2019-02-04T18:00:32.749Z,37.13
2019-02-04T18:03:02.367Z,27.60
2019-02-04T18:05:32.023Z,22.40
2019-02-04T18:08:01.904Z,24.70
2019-02-04T18:10:32.045Z,22.90
2019-02-04T18:13:02.273Z,17.05
2019-02-04T18:15:33.484Z,18.83
2019-02-04T18:18:03.157Z,15.50
2019-02-04T18:20:32.925Z,17.53
2019-02-04T18:23:02.799Z,16.90
2019-02-04T18:25:32.688Z,21.33
2019-02-04T18:28:02.360Z,16.93
2019-02-04T18:30:32.391Z,19.70
2019-02-04T18:33:01.996Z,35.67
2019-02-04T18:35:31.994Z,31.03
2019-02-04T18:38:01.672Z,39.10
2019-02-04T18:40:31.596Z,35.97
2019-02-04T18:43:01.364Z,43.93
2019-02-04T18:45:35.206Z,47.63
2019-02-04T18:48:06.149Z,39.60
2019-02-04T18:50:36.070Z,18.27
2019-02-04T18:53:05.804Z,16.00
2019-02-04T18:55:35.496Z,18.90
2019-02-04T18:58:05.423Z,20.77
2019-02-04T19:00:35.186Z,16.37
2019-02-04T19:03:16.957Z,20.10
2019-02-04T19:05:37.544Z,15.73
2019-02-04T19:08:07.505Z,18.20
2019-02-04T19:10:37.310Z,20.00
2019-02-04T19:13:07.017Z,25.03
2019-02-04T19:15:37.424Z,24.30
2019-02-04T19:18:12.897Z,32.50
2019-02-04T19:20:42.676Z,26.77
2019-02-04T19:23:12.484Z,28.00
2019-02-04T19:25:42.546Z,19.93
2019-02-04T19:28:12.284Z,24.07
2019-02-04T19:30:51.871Z,21.30
2019-02-04T19:33:23.273Z,20.07
2019-02-04T19:35:54.597Z,22.23
2019-02-04T19:38:26.020Z,22.43
2019-02-04T19:40:57.978Z,20.83
2019-02-04T19:43:29.835Z,27.30
2019-02-04T19:46:09.401Z,34.07
2019-02-04T19:48:39.293Z,93.70
2019-02-04T19:51:09.637Z,61.93
2019-02-04T19:53:40.160Z,38.27
2019-02-04T19:56:10.209Z,30.67
2019-02-04T19:58:41.643Z,30.77
2019-02-04T20:01:14.457Z,53.00
2019-02-04T20:03:44.388Z,115.23
2019-02-04T20:06:15.359Z,130.87
2019-02-04T20:08:45.780Z,102.83
2019-02-04T20:11:17.864Z,38.50
2019-02-04T20:13:48.180Z,26.07
2019-02-04T20:16:18.585Z,26.50
2019-02-04T20:18:48.381Z,27.50
2019-02-04T20:21:19.618Z,23.67
2019-02-04T20:23:49.564Z,25.63
2019-02-04T20:26:19.777Z,30.07
2019-02-04T20:28:50.342Z,31.35
2019-02-04T20:31:20.941Z,29.60
2019-02-04T20:33:51.044Z,31.17
2019-02-04T20:36:22.416Z,28.77
2019-02-04T20:38:52.284Z,30.30
2019-02-04T20:41:22.653Z,25.33
2019-02-04T20:43:52.495Z,26.93
2019-02-04T20:49:12.955Z,25.05
2019-02-04T20:51:42.830Z,27.43
2019-02-04T20:54:19.722Z,27.63
2019-02-04T20:56:45.041Z,26.70
2019-02-04T20:59:15.486Z,26.48
2019-02-04T21:01:45.090Z,20.83
2019-02-04T21:04:14.830Z,23.90
2019-02-04T21:06:55.398Z,25.30
2019-02-04T21:09:15.681Z,25.50
2019-02-04T21:11:45.809Z,21.43
2019-02-04T21:14:15.429Z,20.87
2019-02-04T21:16:45.042Z,23.87
2019-02-04T21:19:14.877Z,20.23
2019-02-04T21:21:44.517Z,21.60
2019-02-04T21:24:14.480Z,27.73
2019-02-04T21:26:44.460Z,22.30
2019-02-04T21:29:14.192Z,20.37
2019-02-04T21:31:44.002Z,21.27
2019-02-04T21:34:13.722Z,24.37
2019-02-04T21:36:43.326Z,25.23
2019-02-04T21:39:13.526Z,27.17
2019-02-04T21:41:43.337Z,26.30
2019-02-04T21:44:13.057Z,24.13
2019-02-04T21:46:42.681Z,21.20
2019-02-04T21:49:12.317Z,17.33
2019-02-04T21:51:41.972Z,22.17
2019-02-04T21:54:13.193Z,22.93
2019-02-04T21:56:43.768Z,23.52
2019-02-04T21:59:13.492Z,22.87
2019-02-04T22:01:43.101Z,18.80
2019-02-04T22:04:12.720Z,21.17
2019-02-04T22:06:42.341Z,23.53
2019-02-04T22:09:12.227Z,20.17
2019-02-04T22:11:41.841Z,20.90
2019-02-04T22:14:11.762Z,22.63
2019-02-04T22:16:42.560Z,20.70
2019-02-04T22:19:12.498Z,17.20
2019-02-04T22:21:42.106Z,21.33
2019-02-04T22:24:13.200Z,22.97
2019-02-04T22:26:42.908Z,22.30
2019-02-04T22:29:13.043Z,24.57
2019-02-04T22:31:43.449Z,23.17
2019-02-04T22:34:25.850Z,19.17
2019-02-04T22:36:55.554Z,19.03
2019-02-04T22:39:44.724Z,23.93
2019-02-04T22:42:26.128Z,24.70
2019-02-04T22:44:56.226Z,22.47
2019-02-04T22:47:45.303Z,19.27
2019-02-04T22:50:26.922Z,21.60
2019-02-04T22:53:08.865Z,19.03
2019-02-04T22:55:51.109Z,21.90
2019-02-04T22:58:33.158Z,20.87
2019-02-04T23:01:15.313Z,20.23
2019-02-04T23:03:56.953Z,24.93
2019-02-04T23:06:38.507Z,23.50
2019-02-04T23:09:08.534Z,21.80
2019-02-04T23:11:38.321Z,20.23
2019-02-04T23:14:08.764Z,22.67
2019-02-04T23:16:38.394Z,24.27
2019-02-04T23:19:08.241Z,40.90
2019-02-04T23:21:45.193Z,23.67
2019-02-04T23:24:14.810Z,27.47
2019-02-04T23:26:56.894Z,31.02
2019-02-04T23:29:39.154Z,67.00
2019-02-04T23:32:22.027Z,48.55
2019-02-04T23:35:03.946Z,28.47
2019-02-04T23:37:45.942Z,30.73
2019-02-04T23:40:27.915Z,26.70
2019-02-04T23:43:09.846Z,23.67
2019-02-04T23:45:52.096Z,24.10
2019-02-04T23:48:34.933Z,22.17
2019-02-04T23:51:16.805Z,24.77
2019-02-04T23:53:58.925Z,26.40
2019-02-04T23:56:41.162Z,21.17
2019-02-04T23:59:23.062Z,24.67
